MOL Maestro — 3EKT9 — position and weather

sailwx.info

Track history (hours):
 
Tides and Currents Weather Stations Pressure Air Temp Water Temp Dewpoint Dewpoint Depression Visibility Wind Speed Wind Dir Waves Ship Positions

MOL Maestro

Last reported at 2018-Apr-22 13:58 UTC. Time now 2018-Apr-26 03:37 UTC.
Position N 36°46' W 075°42'.

Length 302 m; draft 10.6 m.

Type: Ship (hazmat cat A). MMSI: 373457000.

Date/timePositionNaut miles runAvg speedWind from/ knotsBaromVisibWave heightAir tempDewpointWater temp
2018-Apr-22 13:58N 36°46' W 075°42'5 9.7
2018-Apr-22 13:27N 36°49' W 075°48'5 9.9
2018-Apr-22 12:56N 36°52' W 075°53'4 9.7
2018-Apr-22 12:30N 36°55' W 075°56'611.6
2018-Apr-22 12:00N 36°57' W 076°03'815.8
2018-Apr-22 11:30N 36°60' W 076°13'611.9
2018-Apr-22 10:59N 36°58' W 076°20'3 5.6
2018-Apr-22 10:30N 36°56' W 076°20'0 0.1
2018-Apr-22 09:52N 36°56' W 076°20'0 0.0
2018-Apr-22 09:27N 36°56' W 076°20'0 0.0
2018-Apr-22 08:57N 36°56' W 076°20'0 0.0
2018-Apr-22 08:27N 36°56' W 076°20'0 0.0
2018-Apr-22 07:57N 36°56' W 076°20'0 0.0
2018-Apr-22 07:30N 36°56' W 076°20'0 0.0
2018-Apr-22 06:45N 36°56' W 076°20'0 0.0
2018-Apr-22 06:30N 36°56' W 076°20'0 0.0
2018-Apr-22 05:57N 36°56' W 076°20'0 0.0
2018-Apr-22 05:30N 36°56' W 076°20'0 0.0
2018-Apr-22 04:57N 36°56' W 076°20'0 0.0
2018-Apr-22 04:27N 36°56' W 076°20'0 0.0
2018-Apr-22 03:51N 36°56' W 076°20'0 0.0
2018-Apr-22 03:30N 36°56' W 076°20'0 0.0
2018-Apr-22 02:57N 36°56' W 076°20'0 0.0
2018-Apr-22 02:30N 36°56' W 076°20'0 0.0
2018-Apr-22 02:00N 36°56' W 076°20'0 0.0
2018-Apr-22 01:30N 36°56' W 076°20'0 0.0
2018-Apr-22 01:00N 36°56' W 076°20'0 0.0
2018-Apr-21 23:39N 36°56' W 076°20'0 0.0
2018-Apr-21 23:00N 36°56' W 076°20'0 0.0
2018-Apr-21 22:30N 36°56' W 076°20'0 0.0
2018-Apr-21 18:45N 36°56' W 076°20'0 0.0
2018-Apr-21 18:30N 36°56' W 076°20'0 0.0
2018-Apr-21 17:54N 36°56' W 076°20'0 0.0
2018-Apr-21 17:30N 36°56' W 076°20'0 0.0
2018-Apr-21 17:00N 36°56' W 076°20'0 0.0
2018-Apr-21 16:30N 36°56' W 076°20'0 0.0
2018-Apr-21 16:00N 36°56' W 076°20'0 0.0
2018-Apr-21 15:15N 36°56' W 076°20'0 0.1
2018-Apr-21 15:01N 36°56' W 076°20'1 2.2
2018-Apr-21 14:31N 36°57' W 076°20'6 9.9
2018-Apr-21 13:55N 37°01' W 076°15'715.7
2018-Apr-21 13:30N 36°59' W 076°07'713.3
2018-Apr-21 13:00N 36°56' W 075°59'5 9.4
2018-Apr-21 12:30N 36°54' W 075°54'4 7.8
2018-Apr-21 12:00N 36°52' W 075°50'4 8.3
2018-Apr-21 11:30N 36°50' W 075°46'  
2018-Apr-19 06:33N 32°35' W 079°31'0 5.8
2018-Apr-19 06:30N 32°35' W 079°31'2 5.0
2018-Apr-19 06:00N 32°33' W 079°29'4 6.9
2018-Apr-19 05:29N 32°31' W 079°32'3 7.1
2018-Apr-19 05:00N 32°28' W 079°35'2 3.6
2018-Apr-19 04:29N 32°27' W 079°36'3 5.1
2018-Apr-19 03:59N 32°24' W 079°38'4 7.3
2018-Apr-19 03:29N 32°21' W 079°40'510.1
2018-Apr-19 02:59N 32°17' W 079°43'511.1
2018-Apr-19 02:30N 32°12' W 079°46'611.1
2018-Apr-19 02:00N 32°08' W 079°50'511.1
2018-Apr-19 01:30N 32°03' W 079°53'611.0
2018-Apr-19 00:58N 31°58' W 079°57'510.9
2018-Apr-19 00:30N 31°54' W 080°01'510.6
2018-Apr-19 00:00N 31°49' W 080°04'510.4
2018-Apr-18 23:30N 31°45' W 080°07'510.3
2018-Apr-18 23:00N 31°41' W 080°10'510.0
2018-Apr-18 22:30N 31°36' W 080°13'510.1
2018-Apr-18 22:00N 31°32' W 080°16'610.2
2018-Apr-18 21:27N 31°27' W 080°19'510.2
2018-Apr-18 21:00N 31°23' W 080°22'510.1
2018-Apr-18 20:30N 31°19' W 080°25'1110.1
2018-Apr-18 19:23N 31°09' W 080°32'410.2
2018-Apr-18 18:59N 31°05' W 080°34'4210.8
2018-Apr-18 15:05N 30°30' W 081°00'12 9.7
2018-Apr-18 13:52N 30°22' W 081°11'512.0
2018-Apr-18 13:27N 30°23' W 081°16'710.5
2018-Apr-18 12:45N 30°24' W 081°25'2 6.2
2018-Apr-18 12:26N 30°23' W 081°26'3 7.2
2018-Apr-18 11:57N 30°23' W 081°30'3 6.2
2018-Apr-18 11:27N 30°24' W 081°34'104 4.5
2018-Apr-17 12:18N 31°53' W 080°33'3 9.9
2018-Apr-17 12:00N 31°54' W 080°36'5 9.8
2018-Apr-17 11:31N 31°56' W 080°41'510.1
2018-Apr-17 11:00N 31°59' W 080°46'611.7
2018-Apr-17 10:30N 32°02' W 080°52'4 8.1
2018-Apr-17 10:00N 32°03' W 080°56'4 8.7
2018-Apr-17 09:30N 32°06' W 081°00'3 6.9
2018-Apr-17 09:00N 32°05' W 081°04'3 4.9
2018-Apr-17 08:29N 32°06' W 081°07'2 4.2
2018-Apr-17 08:00N 32°08' W 081°08'0 0.1
2018-Apr-17 07:25N 32°08' W 081°08'0 0.0
2018-Apr-17 06:55N 32°08' W 081°08'0 0.0
2018-Apr-17 06:13N 32°08' W 081°08'0 0.0
2018-Apr-17 05:55N 32°08' W 081°08'0 0.0
2018-Apr-17 05:25N 32°08' W 081°08'0 0.0
2018-Apr-17 04:55N 32°08' W 081°08'0 0.0
2018-Apr-17 04:13N 32°08' W 081°08'0 0.0
2018-Apr-17 03:55N 32°08' W 081°08'0 0.0
2018-Apr-17 03:25N 32°08' W 081°08'0 0.0
2018-Apr-17 02:55N 32°08' W 081°08'0 0.0
2018-Apr-17 02:25N 32°08' W 081°08'0 0.0
2018-Apr-17 01:55N 32°08' W 081°08'0 0.0
2018-Apr-17 01:25N 32°08' W 081°08'0 0.0
2018-Apr-17 00:55N 32°08' W 081°08'0 0.0
2018-Apr-17 00:25N 32°08' W 081°08'0 0.0
2018-Apr-16 23:55N 32°08' W 081°08'0 0.1
2018-Apr-16 23:25N 32°08' W 081°08'0 0.1
2018-Apr-16 22:55N 32°08' W 081°08'0 0.0
2018-Apr-16 22:25N 32°08' W 081°08'0 0.0
2018-Apr-16 21:55N 32°08' W 081°08'0 0.0
2018-Apr-16 21:25N 32°08' W 081°08'0 0.0
2018-Apr-16 20:55N 32°08' W 081°08'0 0.0
2018-Apr-16 20:25N 32°08' W 081°08'0 0.0
2018-Apr-16 19:55N 32°08' W 081°08'0 0.0
2018-Apr-16 19:25N 32°08' W 081°08'0 0.0
2018-Apr-16 18:55N 32°08' W 081°08'0 0.0
2018-Apr-16 18:19N 32°08' W 081°08'0 0.0
2018-Apr-16 17:49N 32°08' W 081°08'0 0.0
2018-Apr-16 17:25N 32°08' W 081°08'0 0.0
2018-Apr-16 16:55N 32°08' W 081°08'0 0.0
2018-Apr-16 16:25N 32°08' W 081°08'0 0.0
2018-Apr-16 15:55N 32°08' W 081°08'0 0.0
2018-Apr-16 15:19N 32°08' W 081°08'0 0.0
2018-Apr-16 14:49N 32°08' W 081°08'0 0.0
2018-Apr-16 14:25N 32°08' W 081°08'0 0.0
2018-Apr-16 13:55N 32°08' W 081°08'0 0.0
2018-Apr-16 13:01N 32°08' W 081°08'0 0.1
2018-Apr-16 12:55N 32°08' W 081°08'0 0.0
2018-Apr-16 12:25N 32°08' W 081°08'0 0.0
2018-Apr-16 11:55N 32°08' W 081°08'0 0.0
2018-Apr-16 11:25N 32°08' W 081°08'0 0.0
2018-Apr-16 10:55N 32°08' W 081°08'0 0.0
2018-Apr-16 10:25N 32°08' W 081°08'0 0.0
2018-Apr-16 09:55N 32°08' W 081°08'0 0.0
2018-Apr-16 09:25N 32°08' W 081°08'0 0.0
2018-Apr-16 08:55N 32°08' W 081°08'0 0.0
2018-Apr-16 08:19N 32°08' W 081°08'0 0.0
2018-Apr-16 07:55N 32°08' W 081°08'0 0.0
2018-Apr-16 07:25N 32°08' W 081°08'0 0.0
2018-Apr-16 06:55N 32°08' W 081°08'0 0.0
2018-Apr-16 06:25N 32°08' W 081°08'0 0.0
2018-Apr-16 05:55N 32°08' W 081°08'0 0.0
2018-Apr-16 05:25N 32°08' W 081°08'0 0.0
2018-Apr-16 04:43N 32°08' W 081°08'0 0.0
2018-Apr-16 04:25N 32°08' W 081°08'0 0.0
2018-Apr-16 03:59N 32°08' W 081°08'0 0.8
2018-Apr-16 03:30N 32°08' W 081°08'1 2.0
2018-Apr-16 03:00N 32°07' W 081°08'2 4.3
2018-Apr-16 02:30N 32°05' W 081°06'3 5.0
2018-Apr-16 02:00N 32°05' W 081°03'3 5.1
2018-Apr-16 01:29N 32°06' W 081°00'5 9.4
2018-Apr-16 01:00N 32°03' W 080°56'511.0
2018-Apr-16 00:30N 32°02' W 080°50'714.1
2018-Apr-16 00:00N 31°58' W 080°43'5 9.6
2018-Apr-15 23:30N 31°56' W 080°38'4 8.5
2018-Apr-15 23:00N 31°57' W 080°33'1 2.4
2018-Apr-15 22:30N 31°58' W 080°32'1 0.5
2018-Apr-15 20:00N 31°58' W 080°30'3 5.8
2018-Apr-15 19:30N 31°57' W 080°28'2 4.8
2018-Apr-15 18:59N 31°54' W 080°27'4 9.0
2018-Apr-15 18:30N 31°50' W 080°25'5 9.7
2018-Apr-15 18:00N 31°46' W 080°23'510.2
2018-Apr-15 17:30N 31°42' W 080°19'611.4
2018-Apr-15 17:00N 31°37' W 080°15'1011.3
2018-Apr-15 16:07N 31°29' W 080°08'211.3
2018-Apr-15 15:58N 31°28' W 080°07'611.3
2018-Apr-15 15:28N 31°23' W 080°04'711.4
2018-Apr-15 14:51N 31°17' W 079°60'711.7
2018-Apr-15 14:17N 31°11' W 079°56'29114.0
2018-Apr-14 17:28N 26°22' W 079°24'714.5
2018-Apr-14 17:00N 26°15' W 079°25'714.7
2018-Apr-14 16:30N 26°08' W 079°26'815.4
2018-Apr-14 15:59N 25°60' W 079°26'715.1
2018-Apr-14 15:30N 25°52' W 079°25'714.7
2018-Apr-14 15:00N 25°45' W 079°25'714.6
2018-Apr-14 14:30N 25°38' W 079°25'  
Track history (hours):
 
Tides and Currents Weather Stations Pressure Air Temp Water Temp Dewpoint Dewpoint Depression Visibility Wind Speed Wind Dir Waves Ship Positions

MOL Maestro

Last reported at 2018-Apr-22 13:58 UTC. Time now 2018-Apr-26 03:37 UTC.
Position N 36°46' W 075°42'.

Length 302 m; draft 10.6 m.

Type: Ship (hazmat cat A). MMSI: 373457000.

Date/timePositionNaut miles runAvg speedWind from/ knotsBaromVisibWave heightAir tempDewpointWater temp
2018-Apr-22 13:58N 36°46' W 075°42'5 9.7
2018-Apr-22 13:27N 36°49' W 075°48'5 9.9
2018-Apr-22 12:56N 36°52' W 075°53'4 9.7
2018-Apr-22 12:30N 36°55' W 075°56'611.6
2018-Apr-22 12:00N 36°57' W 076°03'815.8
2018-Apr-22 11:30N 36°60' W 076°13'611.9
2018-Apr-22 10:59N 36°58' W 076°20'3 5.6
2018-Apr-22 10:30N 36°56' W 076°20'0 0.1
2018-Apr-22 09:52N 36°56' W 076°20'0 0.0
2018-Apr-22 09:27N 36°56' W 076°20'0 0.0
2018-Apr-22 08:57N 36°56' W 076°20'0 0.0
2018-Apr-22 08:27N 36°56' W 076°20'0 0.0
2018-Apr-22 07:57N 36°56' W 076°20'0 0.0
2018-Apr-22 07:30N 36°56' W 076°20'0 0.0
2018-Apr-22 06:45N 36°56' W 076°20'0 0.0
2018-Apr-22 06:30N 36°56' W 076°20'0 0.0
2018-Apr-22 05:57N 36°56' W 076°20'0 0.0
2018-Apr-22 05:30N 36°56' W 076°20'0 0.0
2018-Apr-22 04:57N 36°56' W 076°20'0 0.0
2018-Apr-22 04:27N 36°56' W 076°20'0 0.0
2018-Apr-22 03:51N 36°56' W 076°20'0 0.0
2018-Apr-22 03:30N 36°56' W 076°20'0 0.0
2018-Apr-22 02:57N 36°56' W 076°20'0 0.0
2018-Apr-22 02:30N 36°56' W 076°20'0 0.0
2018-Apr-22 02:00N 36°56' W 076°20'0 0.0
2018-Apr-22 01:30N 36°56' W 076°20'0 0.0
2018-Apr-22 01:00N 36°56' W 076°20'0 0.0
2018-Apr-21 23:39N 36°56' W 076°20'0 0.0
2018-Apr-21 23:00N 36°56' W 076°20'0 0.0
2018-Apr-21 22:30N 36°56' W 076°20'0 0.0
2018-Apr-21 18:45N 36°56' W 076°20'0 0.0
2018-Apr-21 18:30N 36°56' W 076°20'0 0.0
2018-Apr-21 17:54N 36°56' W 076°20'0 0.0
2018-Apr-21 17:30N 36°56' W 076°20'0 0.0
2018-Apr-21 17:00N 36°56' W 076°20'0 0.0
2018-Apr-21 16:30N 36°56' W 076°20'0 0.0
2018-Apr-21 16:00N 36°56' W 076°20'0 0.0
2018-Apr-21 15:15N 36°56' W 076°20'0 0.1
2018-Apr-21 15:01N 36°56' W 076°20'1 2.2
2018-Apr-21 14:31N 36°57' W 076°20'6 9.9
2018-Apr-21 13:55N 37°01' W 076°15'715.7
2018-Apr-21 13:30N 36°59' W 076°07'713.3
2018-Apr-21 13:00N 36°56' W 075°59'5 9.4
2018-Apr-21 12:30N 36°54' W 075°54'4 7.8
2018-Apr-21 12:00N 36°52' W 075°50'4 8.3
2018-Apr-21 11:30N 36°50' W 075°46'  
2018-Apr-19 06:33N 32°35' W 079°31'0 5.8
2018-Apr-19 06:30N 32°35' W 079°31'2 5.0
2018-Apr-19 06:00N 32°33' W 079°29'4 6.9
2018-Apr-19 05:29N 32°31' W 079°32'3 7.1
2018-Apr-19 05:00N 32°28' W 079°35'2 3.6
2018-Apr-19 04:29N 32°27' W 079°36'3 5.1
2018-Apr-19 03:59N 32°24' W 079°38'4 7.3
2018-Apr-19 03:29N 32°21' W 079°40'510.1
2018-Apr-19 02:59N 32°17' W 079°43'511.1
2018-Apr-19 02:30N 32°12' W 079°46'611.1
2018-Apr-19 02:00N 32°08' W 079°50'511.1
2018-Apr-19 01:30N 32°03' W 079°53'611.0
2018-Apr-19 00:58N 31°58' W 079°57'510.9
2018-Apr-19 00:30N 31°54' W 080°01'510.6
2018-Apr-19 00:00N 31°49' W 080°04'510.4
2018-Apr-18 23:30N 31°45' W 080°07'510.3
2018-Apr-18 23:00N 31°41' W 080°10'510.0
2018-Apr-18 22:30N 31°36' W 080°13'510.1
2018-Apr-18 22:00N 31°32' W 080°16'610.2
2018-Apr-18 21:27N 31°27' W 080°19'510.2
2018-Apr-18 21:00N 31°23' W 080°22'510.1
2018-Apr-18 20:30N 31°19' W 080°25'1110.1
2018-Apr-18 19:23N 31°09' W 080°32'410.2
2018-Apr-18 18:59N 31°05' W 080°34'4210.8
2018-Apr-18 15:05N 30°30' W 081°00'12 9.7
2018-Apr-18 13:52N 30°22' W 081°11'512.0
2018-Apr-18 13:27N 30°23' W 081°16'710.5
2018-Apr-18 12:45N 30°24' W 081°25'2 6.2
2018-Apr-18 12:26N 30°23' W 081°26'3 7.2
2018-Apr-18 11:57N 30°23' W 081°30'3 6.2
2018-Apr-18 11:27N 30°24' W 081°34'104 4.5
2018-Apr-17 12:18N 31°53' W 080°33'3 9.9
2018-Apr-17 12:00N 31°54' W 080°36'5 9.8
2018-Apr-17 11:31N 31°56' W 080°41'510.1
2018-Apr-17 11:00N 31°59' W 080°46'611.7
2018-Apr-17 10:30N 32°02' W 080°52'4 8.1
2018-Apr-17 10:00N 32°03' W 080°56'4 8.7
2018-Apr-17 09:30N 32°06' W 081°00'3 6.9
2018-Apr-17 09:00N 32°05' W 081°04'3 4.9
2018-Apr-17 08:29N 32°06' W 081°07'2 4.2
2018-Apr-17 08:00N 32°08' W 081°08'0 0.1
2018-Apr-17 07:25N 32°08' W 081°08'0 0.0
2018-Apr-17 06:55N 32°08' W 081°08'0 0.0
2018-Apr-17 06:13N 32°08' W 081°08'0 0.0
2018-Apr-17 05:55N 32°08' W 081°08'0 0.0
2018-Apr-17 05:25N 32°08' W 081°08'0 0.0
2018-Apr-17 04:55N 32°08' W 081°08'0 0.0
2018-Apr-17 04:13N 32°08' W 081°08'0 0.0
2018-Apr-17 03:55N 32°08' W 081°08'0 0.0
2018-Apr-17 03:25N 32°08' W 081°08'0 0.0
2018-Apr-17 02:55N 32°08' W 081°08'0 0.0
2018-Apr-17 02:25N 32°08' W 081°08'0 0.0
2018-Apr-17 01:55N 32°08' W 081°08'0 0.0
2018-Apr-17 01:25N 32°08' W 081°08'0 0.0
2018-Apr-17 00:55N 32°08' W 081°08'0 0.0
2018-Apr-17 00:25N 32°08' W 081°08'0 0.0
2018-Apr-16 23:55N 32°08' W 081°08'0 0.1
2018-Apr-16 23:25N 32°08' W 081°08'0 0.1
2018-Apr-16 22:55N 32°08' W 081°08'0 0.0
2018-Apr-16 22:25N 32°08' W 081°08'0 0.0
2018-Apr-16 21:55N 32°08' W 081°08'0 0.0
2018-Apr-16 21:25N 32°08' W 081°08'0 0.0
2018-Apr-16 20:55N 32°08' W 081°08'0 0.0
2018-Apr-16 20:25N 32°08' W 081°08'0 0.0
2018-Apr-16 19:55N 32°08' W 081°08'0 0.0
2018-Apr-16 19:25N 32°08' W 081°08'0 0.0
2018-Apr-16 18:55N 32°08' W 081°08'0 0.0
2018-Apr-16 18:19N 32°08' W 081°08'0 0.0
2018-Apr-16 17:49N 32°08' W 081°08'0 0.0
2018-Apr-16 17:25N 32°08' W 081°08'0 0.0
2018-Apr-16 16:55N 32°08' W 081°08'0 0.0
2018-Apr-16 16:25N 32°08' W 081°08'0 0.0
2018-Apr-16 15:55N 32°08' W 081°08'0 0.0
2018-Apr-16 15:19N 32°08' W 081°08'0 0.0
2018-Apr-16 14:49N 32°08' W 081°08'0 0.0
2018-Apr-16 14:25N 32°08' W 081°08'0 0.0
2018-Apr-16 13:55N 32°08' W 081°08'0 0.0
2018-Apr-16 13:01N 32°08' W 081°08'0 0.1
2018-Apr-16 12:55N 32°08' W 081°08'0 0.0
2018-Apr-16 12:25N 32°08' W 081°08'0 0.0
2018-Apr-16 11:55N 32°08' W 081°08'0 0.0
2018-Apr-16 11:25N 32°08' W 081°08'0 0.0
2018-Apr-16 10:55N 32°08' W 081°08'0 0.0
2018-Apr-16 10:25N 32°08' W 081°08'0 0.0
2018-Apr-16 09:55N 32°08' W 081°08'0 0.0
2018-Apr-16 09:25N 32°08' W 081°08'0 0.0
2018-Apr-16 08:55N 32°08' W 081°08'0 0.0
2018-Apr-16 08:19N 32°08' W 081°08'0 0.0
2018-Apr-16 07:55N 32°08' W 081°08'0 0.0
2018-Apr-16 07:25N 32°08' W 081°08'0 0.0
2018-Apr-16 06:55N 32°08' W 081°08'0 0.0
2018-Apr-16 06:25N 32°08' W 081°08'0 0.0
2018-Apr-16 05:55N 32°08' W 081°08'0 0.0
2018-Apr-16 05:25N 32°08' W 081°08'0 0.0
2018-Apr-16 04:43N 32°08' W 081°08'0 0.0
2018-Apr-16 04:25N 32°08' W 081°08'0 0.0
2018-Apr-16 03:59N 32°08' W 081°08'0 0.8
2018-Apr-16 03:30N 32°08' W 081°08'1 2.0
2018-Apr-16 03:00N 32°07' W 081°08'2 4.3
2018-Apr-16 02:30N 32°05' W 081°06'3 5.0
2018-Apr-16 02:00N 32°05' W 081°03'3 5.1
2018-Apr-16 01:29N 32°06' W 081°00'5 9.4
2018-Apr-16 01:00N 32°03' W 080°56'511.0
2018-Apr-16 00:30N 32°02' W 080°50'714.1
2018-Apr-16 00:00N 31°58' W 080°43'5 9.6
2018-Apr-15 23:30N 31°56' W 080°38'4 8.5
2018-Apr-15 23:00N 31°57' W 080°33'1 2.4
2018-Apr-15 22:30N 31°58' W 080°32'1 0.5
2018-Apr-15 20:00N 31°58' W 080°30'3 5.8
2018-Apr-15 19:30N 31°57' W 080°28'2 4.8
2018-Apr-15 18:59N 31°54' W 080°27'4 9.0
2018-Apr-15 18:30N 31°50' W 080°25'5 9.7
2018-Apr-15 18:00N 31°46' W 080°23'510.2
2018-Apr-15 17:30N 31°42' W 080°19'611.4
2018-Apr-15 17:00N 31°37' W 080°15'1011.3
2018-Apr-15 16:07N 31°29' W 080°08'211.3
2018-Apr-15 15:58N 31°28' W 080°07'611.3
2018-Apr-15 15:28N 31°23' W 080°04'711.4
2018-Apr-15 14:51N 31°17' W 079°60'711.7
2018-Apr-15 14:17N 31°11' W 079°56'29114.0
2018-Apr-14 17:28N 26°22' W 079°24'714.5
2018-Apr-14 17:00N 26°15' W 079°25'714.7
2018-Apr-14 16:30N 26°08' W 079°26'815.4
2018-Apr-14 15:59N 25°60' W 079°26'715.1
2018-Apr-14 15:30N 25°52' W 079°25'714.7
2018-Apr-14 15:00N 25°45' W 079°25'714.6
2018-Apr-14 14:30N 25°38' W 079°25'  

Dump ship's entire track history